ENBR/BGO METAR and TAF weather

Enter ICAO airport designator
Station Type Date Time Source
ENBR METAR 2022/06/30 00:20 UTC NOAA

ENBR 300020Z 03002KT CAVOK 13/10 Q1017 RMK WIND 1200FT 09003KT


Station Type Date Time Source
ENBR Decoded METAR 2022/06/30 00:20 UTC NOAA

Bergen / Flesland, Norway (ENBR) 60-17N 005-14E 50M
Jun 29, 2022 - 08:20 PM EDT / 2022.06.30 0020 UTC
Wind: from the NNE (030 degrees) at 2 MPH (2 KT):0
Visibility: greater than 7 mile(s):0
Temperature: 55 F (13 C)
Dew Point: 50 F (10 C)
Relative Humidity: 81%
Pressure (altimeter): 30.03 in. Hg (1017 hPa)
ob: ENBR 300020Z 03002KT CAVOK 13/10 Q1017 RMK WIND 1200FT 09003KT
cycle: 0

Station Type Date Time Source
ENBR TAF 2022/06/29 18:57 UTC NOAA

TAF ENBR 291700Z 2918/3018 22010KT CAVOK
BECMG 2918/2920 VRB03KT
BECMG 3009/3011 18010KT

Example: see airport list